createdAt,value
2023-07-12T00:00:29.352Z,22.45
2023-07-12T00:03:21.999Z,22.14
2023-07-12T00:06:37.396Z,22.17
2023-07-12T00:09:28.999Z,22.32
2023-07-12T00:12:13.914Z,22.27
2023-07-12T00:15:05.011Z,21.88
2023-07-12T00:17:51.320Z,21.94
2023-07-12T00:20:43.025Z,22.01
2023-07-12T00:23:34.016Z,22.23
2023-07-12T00:26:35.051Z,22.09
2023-07-12T00:29:19.941Z,22.17
2023-07-12T00:32:12.028Z,22.16
2023-07-12T00:35:04.013Z,22.15
2023-07-12T00:37:58.010Z,22.19
2023-07-12T00:40:56.014Z,21.89
2023-07-12T00:43:49.008Z,22.04
2023-07-12T00:46:46.801Z,22.11
2023-07-12T00:49:38.011Z,22.05
2023-07-12T00:52:23.142Z,22.08
2023-07-12T00:55:53.015Z,21.99
2023-07-12T00:58:45.074Z,22.07
2023-07-12T01:01:38.082Z,22.07
2023-07-12T01:04:34.517Z,22.05
2023-07-12T01:07:28.045Z,22.02
2023-07-12T01:10:13.649Z,22.05
2023-07-12T01:13:05.021Z,21.70
2023-07-12T01:15:51.227Z,21.80
2023-07-12T01:18:42.064Z,21.91
2023-07-12T01:21:28.964Z,21.98
2023-07-12T01:24:22.057Z,22.03
2023-07-12T01:27:15.543Z,21.83
2023-07-12T01:30:07.024Z,21.94
2023-07-12T01:32:53.839Z,21.92
2023-07-12T01:35:45.020Z,21.94
2023-07-12T01:38:29.962Z,21.87
2023-07-12T01:41:22.051Z,21.95
2023-07-12T01:44:07.440Z,22.08
2023-07-12T01:46:59.056Z,22.12
2023-07-12T01:49:44.063Z,21.91
2023-07-12T01:52:35.044Z,21.93
2023-07-12T01:55:20.125Z,21.91
2023-07-12T01:58:12.041Z,21.82
2023-07-12T02:01:04.127Z,21.64
2023-07-12T02:03:56.138Z,21.45
2023-07-12T02:06:48.053Z,21.30
2023-07-12T02:09:46.033Z,21.49
2023-07-12T02:12:31.049Z,21.54
2023-07-12T02:15:24.077Z,21.52
2023-07-12T02:18:12.948Z,21.52
2023-07-12T02:21:05.042Z,21.57
2023-07-12T02:23:56.068Z,21.59
2023-07-12T02:26:49.046Z,21.61
2023-07-12T02:29:41.091Z,21.56
2023-07-12T02:32:34.077Z,21.40
2023-07-12T02:35:19.961Z,21.55
2023-07-12T02:38:11.067Z,21.52
2023-07-12T02:41:03.051Z,21.25
2023-07-12T02:43:48.652Z,21.41
2023-07-12T02:46:40.059Z,21.41
2023-07-12T02:49:24.936Z,21.09
2023-07-12T02:52:17.062Z,21.26
2023-07-12T02:55:02.011Z,21.22
2023-07-12T02:57:53.085Z,21.08
2023-07-12T03:00:45.075Z,21.11
2023-07-12T03:03:43.090Z,20.93
2023-07-12T03:06:34.108Z,20.93
2023-07-12T03:09:25.094Z,20.92
2023-07-12T03:12:10.226Z,20.96
2023-07-12T03:15:02.092Z,20.93
2023-07-12T03:17:47.564Z,21.01
2023-07-12T03:20:40.090Z,20.95
2023-07-12T03:23:25.112Z,20.74
2023-07-12T03:26:16.092Z,20.63
2023-07-12T03:29:01.224Z,20.42
2023-07-12T03:31:53.090Z,20.05
2023-07-12T03:34:37.919Z,20.01
2023-07-12T03:37:29.133Z,19.91
2023-07-12T03:40:14.713Z,20.01
2023-07-12T03:43:06.104Z,20.15
2023-07-12T03:45:52.209Z,19.73
2023-07-12T03:48:44.106Z,19.98
2023-07-12T03:51:29.212Z,19.80
2023-07-12T03:54:22.125Z,19.61
2023-07-12T03:57:06.881Z,19.90
2023-07-12T03:59:58.086Z,19.94
2023-07-12T04:03:03.159Z,19.92
2023-07-12T04:05:58.090Z,19.98
2023-07-12T04:08:43.152Z,19.85
2023-07-12T04:11:37.090Z,20.02
2023-07-12T04:14:22.161Z,19.93
2023-07-12T04:17:13.101Z,19.54
2023-07-12T04:19:59.134Z,19.60
2023-07-12T04:22:50.190Z,19.44
2023-07-12T04:25:34.992Z,19.22
2023-07-12T04:28:26.129Z,19.35
2023-07-12T04:31:12.854Z,19.62
2023-07-12T04:34:05.127Z,19.58
2023-07-12T04:36:54.434Z,19.51
2023-07-12T04:39:46.138Z,19.63
2023-07-12T04:42:30.899Z,19.49
2023-07-12T04:45:22.107Z,19.55
2023-07-12T04:48:07.064Z,19.58
2023-07-12T04:51:00.109Z,19.58
2023-07-12T04:53:48.633Z,19.68
2023-07-12T04:56:41.121Z,19.84
2023-07-12T04:59:26.220Z,19.88
2023-07-12T05:02:18.122Z,19.57
2023-07-12T05:05:12.841Z,19.55
2023-07-12T05:08:04.117Z,19.59
2023-07-12T05:10:48.976Z,19.65
2023-07-12T05:13:41.127Z,19.59
2023-07-12T05:16:25.948Z,19.82
2023-07-12T05:19:17.132Z,19.53
2023-07-12T05:22:01.862Z,19.68
2023-07-12T05:24:53.126Z,19.35
2023-07-12T05:27:45.168Z,18.90
2023-07-12T05:30:32.886Z,18.95
2023-07-12T05:33:24.124Z,18.90
2023-07-12T05:36:16.132Z,19.01
2023-07-12T05:39:01.959Z,18.64
2023-07-12T05:41:53.138Z,18.71
2023-07-12T05:44:38.197Z,18.87
2023-07-12T05:47:29.170Z,18.76
2023-07-12T05:50:16.979Z,18.67
2023-07-12T05:53:08.142Z,18.72
2023-07-12T05:55:57.678Z,18.85
2023-07-12T05:58:49.144Z,19.00
2023-07-12T06:01:34.278Z,19.02
2023-07-12T06:04:33.149Z,19.17
2023-07-12T06:07:18.524Z,19.36
2023-07-12T06:10:11.137Z,19.23
2023-07-12T06:13:03.139Z,19.33
2023-07-12T06:15:48.069Z,19.36
2023-07-12T06:18:40.147Z,19.64
2023-07-12T06:21:25.198Z,19.77
2023-07-12T06:24:16.174Z,20.45
2023-07-12T06:27:08.159Z,20.37
2023-07-12T06:29:53.088Z,20.13
2023-07-12T06:32:45.197Z,19.73
2023-07-12T06:35:31.265Z,19.80
2023-07-12T06:38:24.176Z,19.73
2023-07-12T06:41:09.113Z,19.60
2023-07-12T06:44:01.170Z,19.76
2023-07-12T06:46:46.328Z,19.73
2023-07-12T06:49:38.142Z,19.73
2023-07-12T06:52:23.109Z,19.71
2023-07-12T06:55:15.144Z,19.79
2023-07-12T06:58:06.168Z,20.12
2023-07-12T07:00:51.594Z,20.35
2023-07-12T07:03:50.224Z,20.48
2023-07-12T07:06:42.165Z,20.71
2023-07-12T07:09:27.194Z,20.81
2023-07-12T07:12:18.176Z,20.73
2023-07-12T07:15:03.290Z,20.58
2023-07-12T07:17:54.320Z,20.47
2023-07-12T07:20:41.361Z,20.64
2023-07-12T07:23:33.185Z,20.78
2023-07-12T07:26:18.011Z,21.06
2023-07-12T07:29:09.188Z,21.56
2023-07-12T07:31:54.027Z,21.06
2023-07-12T07:34:46.177Z,20.89
2023-07-12T07:37:31.315Z,20.65
2023-07-12T07:40:23.174Z,21.06
2023-07-12T07:43:16.195Z,20.36
2023-07-12T07:46:01.203Z,20.57
2023-07-12T07:48:53.197Z,20.61
2023-07-12T07:51:38.080Z,20.72
2023-07-12T07:54:30.514Z,20.41
2023-07-12T07:57:15.748Z,21.16
2023-07-12T08:00:12.260Z,21.91
2023-07-12T08:03:04.378Z,21.69
2023-07-12T08:06:08.205Z,24.45
2023-07-12T08:08:59.197Z,26.24
2023-07-12T08:11:50.183Z,25.62
2023-07-12T08:14:35.159Z,27.11
2023-07-12T08:17:26.238Z,27.82
2023-07-12T08:20:12.086Z,26.45
2023-07-12T08:23:03.211Z,26.62
2023-07-12T08:25:57.185Z,23.50
2023-07-12T08:28:42.191Z,23.88
2023-07-12T08:31:33.417Z,24.28
2023-07-12T08:34:18.403Z,24.79
2023-07-12T08:37:10.217Z,25.53
2023-07-12T08:39:55.067Z,26.13
2023-07-12T08:42:48.256Z,28.87
2023-07-12T08:45:41.240Z,26.94
2023-07-12T08:48:26.354Z,27.18
2023-07-12T08:51:27.215Z,28.59
2023-07-12T08:54:32.216Z,29.10
2023-07-12T08:57:25.890Z,27.68
2023-07-12T09:00:30.216Z,25.99
2023-07-12T09:03:21.262Z,29.81
2023-07-12T09:06:23.206Z,28.28
2023-07-12T09:09:10.685Z,28.05
2023-07-12T09:12:02.230Z,26.66
2023-07-12T09:14:54.808Z,27.14
2023-07-12T09:17:50.310Z,24.41
2023-07-12T09:20:40.536Z,23.27
2023-07-12T09:23:33.217Z,23.13
2023-07-12T09:26:34.237Z,22.72
2023-07-12T09:29:32.227Z,23.48
2023-07-12T09:32:28.760Z,26.33
2023-07-12T09:35:31.235Z,27.69
2023-07-12T09:38:31.231Z,28.74
2023-07-12T09:41:26.266Z,24.45
2023-07-12T09:44:17.226Z,25.49
2023-07-12T09:47:12.180Z,29.17
2023-07-12T09:50:08.255Z,29.25
2023-07-12T09:52:58.311Z,29.04
2023-07-12T09:56:05.232Z,27.07
2023-07-12T09:59:00.624Z,24.44
2023-07-12T10:02:01.253Z,23.79
2023-07-12T10:05:08.323Z,25.53
2023-07-12T10:08:17.264Z,24.89
2023-07-12T10:11:18.558Z,24.58
2023-07-12T10:14:15.256Z,27.34
2023-07-12T10:17:08.280Z,26.99
2023-07-12T10:19:55.610Z,27.62
2023-07-12T10:22:49.255Z,27.76
2023-07-12T10:25:37.576Z,24.84
2023-07-12T10:28:41.239Z,27.37
2023-07-12T10:31:58.126Z,26.73
2023-07-12T10:34:53.282Z,26.28
2023-07-12T10:37:44.815Z,27.63
2023-07-12T10:40:43.266Z,26.37
2023-07-12T10:43:37.275Z,27.40
2023-07-12T10:46:45.333Z,27.24
2023-07-12T10:49:41.839Z,25.33
2023-07-12T10:52:37.279Z,25.97
2023-07-12T10:56:14.275Z,24.98
2023-07-12T10:59:03.130Z,26.45
2023-07-12T11:02:02.282Z,26.00
2023-07-12T11:05:00.280Z,27.91
2023-07-12T11:07:52.279Z,27.48
2023-07-12T11:10:37.945Z,25.71
2023-07-12T11:13:39.292Z,26.10
2023-07-12T11:16:32.284Z,24.97
2023-07-12T11:19:36.034Z,24.29
2023-07-12T11:22:31.282Z,26.75
2023-07-12T11:25:38.292Z,25.28
2023-07-12T11:28:23.719Z,25.18
2023-07-12T11:31:34.459Z,24.50
2023-07-12T11:34:31.307Z,24.77
2023-07-12T11:37:42.322Z,27.24
2023-07-12T11:40:33.124Z,26.36
2023-07-12T11:43:30.301Z,26.97
2023-07-12T11:46:27.353Z,27.29
2023-07-12T11:49:15.940Z,27.57
2023-07-12T11:52:19.298Z,26.87
2023-07-12T11:55:05.826Z,27.04
2023-07-12T11:57:57.318Z,27.21
2023-07-12T12:00:48.314Z,27.03
2023-07-12T12:03:46.378Z,26.14
2023-07-12T12:06:44.305Z,25.65
2023-07-12T12:09:36.472Z,25.56
2023-07-12T12:12:36.368Z,26.09
2023-07-12T12:15:24.473Z,25.70
2023-07-12T12:18:23.580Z,25.33
2023-07-12T12:21:19.437Z,25.93
2023-07-12T12:24:27.313Z,25.82
2023-07-12T12:27:26.321Z,25.89
2023-07-12T12:30:25.546Z,25.51
2023-07-12T12:33:32.315Z,25.39
2023-07-12T12:36:25.926Z,26.19
2023-07-12T12:39:20.410Z,25.93
2023-07-12T12:42:27.369Z,25.87
2023-07-12T12:45:12.492Z,25.61
2023-07-12T12:51:01.846Z,25.36
2023-07-12T12:53:56.543Z,25.63
2023-07-12T12:58:06.963Z,26.15
2023-07-12T13:03:10.268Z,26.02
2023-07-12T13:06:01.491Z,25.54
2023-07-12T13:20:23.509Z,25.56
2023-07-12T13:23:10.127Z,25.24
2023-07-12T13:26:01.346Z,25.76
2023-07-12T13:28:53.364Z,25.39
2023-07-12T13:31:38.510Z,25.18
2023-07-12T13:36:07.235Z,25.77
2023-07-12T13:37:46.517Z,26.03
2023-07-12T13:40:37.106Z,26.18
2023-07-12T13:45:13.883Z,25.87
2023-07-12T13:46:37.061Z,26.20
2023-07-12T13:49:29.375Z,25.68
2023-07-12T13:52:24.338Z,25.64
2023-07-12T13:55:17.384Z,25.75
2023-07-12T14:03:52.399Z,26.00
2023-07-12T14:06:56.827Z,25.99
2023-07-12T14:10:03.596Z,26.11
2023-07-12T14:12:54.614Z,25.96
2023-07-12T14:15:46.367Z,25.87
2023-07-12T14:18:31.564Z,25.30
2023-07-12T14:21:25.376Z,25.56
2023-07-12T14:24:20.354Z,25.93
2023-07-12T14:27:12.379Z,25.80
2023-07-12T14:32:55.746Z,25.71
2023-07-12T14:35:41.397Z,25.68
2023-07-12T14:38:32.394Z,25.56
2023-07-12T14:41:31.365Z,25.72
2023-07-12T14:44:17.270Z,26.04
2023-07-12T14:47:09.448Z,25.90
2023-07-12T14:49:55.040Z,25.54
2023-07-12T14:52:48.393Z,25.44
2023-07-12T14:55:33.182Z,25.27
2023-07-12T14:58:24.402Z,25.86
2023-07-12T15:01:29.391Z,26.11
2023-07-12T15:04:28.365Z,25.72
2023-07-12T15:07:30.822Z,25.60
2023-07-12T15:10:24.393Z,25.52
2023-07-12T15:13:09.925Z,25.55
2023-07-12T15:16:01.405Z,25.53
2023-07-12T15:18:49.079Z,25.50
2023-07-12T15:21:40.401Z,25.41
2023-07-12T15:24:25.688Z,25.70
2023-07-12T15:27:20.423Z,25.84
2023-07-12T15:30:05.781Z,25.80
2023-07-12T15:32:57.525Z,25.61
2023-07-12T15:35:49.382Z,25.59
2023-07-12T15:38:34.497Z,25.00
2023-07-12T15:41:29.416Z,25.31
2023-07-12T15:44:14.465Z,25.33
2023-07-12T15:47:06.482Z,25.05
2023-07-12T15:49:51.499Z,25.12
2023-07-12T15:52:42.406Z,25.15
2023-07-12T15:55:27.344Z,25.31
2023-07-12T15:58:28.432Z,25.38
2023-07-12T16:01:18.941Z,25.44
2023-07-12T16:04:10.408Z,25.53
2023-07-12T16:07:24.405Z,25.48
2023-07-12T16:10:13.191Z,25.20
2023-07-12T16:13:04.421Z,25.00
2023-07-12T16:15:57.449Z,24.91
2023-07-12T16:18:49.451Z,24.92
2023-07-12T16:21:34.929Z,24.63
2023-07-12T16:24:27.424Z,24.66
2023-07-12T16:27:14.537Z,24.71
2023-07-12T16:30:06.438Z,24.89
2023-07-12T16:32:51.461Z,24.72
2023-07-12T16:35:42.445Z,24.45
2023-07-12T16:38:29.432Z,24.40
2023-07-12T16:41:31.543Z,24.57
2023-07-12T16:44:20.340Z,24.62
2023-07-12T16:47:11.427Z,24.54
2023-07-12T16:49:56.394Z,24.55
2023-07-12T16:52:48.433Z,24.62
2023-07-12T16:55:34.096Z,24.53
2023-07-12T16:58:33.445Z,24.49
2023-07-12T17:01:26.133Z,24.30
2023-07-12T17:04:23.444Z,24.19
2023-07-12T17:07:21.452Z,24.28
2023-07-12T17:10:07.114Z,24.30
2023-07-12T17:12:58.424Z,24.37
2023-07-12T17:15:44.460Z,24.40
2023-07-12T17:18:36.453Z,24.28
2023-07-12T17:21:21.335Z,24.20
2023-07-12T17:24:19.446Z,24.36
2023-07-12T17:27:16.421Z,24.34
2023-07-12T17:30:01.574Z,24.22
2023-07-12T17:32:53.475Z,24.15
2023-07-12T17:35:44.454Z,23.98
2023-07-12T17:38:35.458Z,23.95
2023-07-12T17:41:35.514Z,23.89
2023-07-12T17:44:20.814Z,23.83
2023-07-12T17:47:20.466Z,23.78
2023-07-12T17:50:06.144Z,23.76
2023-07-12T17:52:59.443Z,23.77
2023-07-12T17:55:48.604Z,23.82
2023-07-12T17:58:40.474Z,23.74
2023-07-12T18:01:30.952Z,23.81
2023-07-12T18:04:22.453Z,23.80
2023-07-12T18:07:31.562Z,23.72
2023-07-12T18:10:23.475Z,23.54
2023-07-12T18:13:21.050Z,23.54
2023-07-12T18:16:12.698Z,23.57
2023-07-12T18:18:57.799Z,23.60
2023-07-12T18:21:49.480Z,23.45
2023-07-12T18:24:34.570Z,23.29
2023-07-12T18:27:27.481Z,23.21
2023-07-12T18:30:13.063Z,23.15
2023-07-12T18:33:04.512Z,23.13
2023-07-12T18:35:59.477Z,23.08
2023-07-12T18:38:53.488Z,23.10
2023-07-12T18:41:45.527Z,23.07
2023-07-12T18:44:32.169Z,22.98
2023-07-12T18:47:24.531Z,22.96
2023-07-12T18:50:09.815Z,22.89
2023-07-12T18:53:03.498Z,22.91
2023-07-12T18:55:55.482Z,22.88
2023-07-12T18:58:47.528Z,22.89
2023-07-12T19:01:40.506Z,22.78
2023-07-12T19:04:38.483Z,22.71
2023-07-12T19:07:35.597Z,22.59
2023-07-12T19:10:28.493Z,22.61
2023-07-12T19:13:15.638Z,22.64
2023-07-12T19:16:07.602Z,22.69
2023-07-12T19:18:52.788Z,22.53
2023-07-12T19:21:46.511Z,22.57
2023-07-12T19:24:38.514Z,22.42
2023-07-12T19:27:42.718Z,22.35
2023-07-12T19:30:29.348Z,22.41
2023-07-12T19:33:22.501Z,22.29
2023-07-12T19:36:09.318Z,22.25
2023-07-12T19:39:01.503Z,22.32
2023-07-12T19:41:54.596Z,22.30
2023-07-12T19:44:46.515Z,22.12
2023-07-12T19:47:38.582Z,22.19
2023-07-12T19:50:30.495Z,22.14
2023-07-12T19:53:27.690Z,22.08
2023-07-12T19:56:19.498Z,22.07
2023-07-12T19:59:11.526Z,22.05
2023-07-12T20:01:56.570Z,22.08
2023-07-12T20:04:47.535Z,22.11
2023-07-12T20:07:39.394Z,22.06
2023-07-12T20:10:30.529Z,22.06
2023-07-12T20:13:22.519Z,21.92
2023-07-12T20:16:14.514Z,21.93
2023-07-12T20:19:06.528Z,21.76
2023-07-12T20:21:51.823Z,21.74
2023-07-12T20:24:43.524Z,21.77
2023-07-12T20:27:33.041Z,21.70
2023-07-12T20:30:25.536Z,21.63
2023-07-12T20:33:17.530Z,21.73
2023-07-12T20:36:08.730Z,21.66
2023-07-12T20:39:00.541Z,21.62
2023-07-12T20:41:45.230Z,21.63
2023-07-12T20:44:36.526Z,21.53
2023-07-12T20:47:23.281Z,21.50
2023-07-12T20:50:14.549Z,21.31
2023-07-12T20:53:06.351Z,21.23
2023-07-12T20:55:59.521Z,21.24
2023-07-12T20:58:44.794Z,21.13
2023-07-12T21:01:38.744Z,21.05
2023-07-12T21:04:30.774Z,21.01
2023-07-12T21:07:30.705Z,20.91
2023-07-12T21:10:19.281Z,20.80
2023-07-12T21:13:10.699Z,20.82
2023-07-12T21:16:04.274Z,20.65
2023-07-12T21:18:58.702Z,20.60
2023-07-12T21:21:50.810Z,20.53
2023-07-12T21:24:36.230Z,20.41
2023-07-12T21:27:28.699Z,20.35
2023-07-12T21:30:13.921Z,20.27
2023-07-12T21:33:05.743Z,20.20
2023-07-12T21:35:54.044Z,20.19
2023-07-12T21:38:45.720Z,20.27
2023-07-12T21:41:30.843Z,20.13
2023-07-12T21:44:22.724Z,20.13
2023-07-12T21:47:11.776Z,20.24
2023-07-12T21:50:03.746Z,20.21
2023-07-12T21:52:49.080Z,19.95
2023-07-12T21:55:40.748Z,20.00
2023-07-12T21:58:25.954Z,19.89
2023-07-12T22:01:20.791Z,19.80
2023-07-12T22:04:05.943Z,19.69
2023-07-12T22:07:04.714Z,19.55
2023-07-12T22:09:50.751Z,19.55
2023-07-12T22:12:42.844Z,19.34
2023-07-12T22:15:29.194Z,19.34
2023-07-12T22:18:21.888Z,19.32
2023-07-12T22:21:16.042Z,19.22
2023-07-12T22:24:07.734Z,19.31
2023-07-12T22:26:52.927Z,19.20
2023-07-12T22:29:45.759Z,19.33
2023-07-12T22:32:31.221Z,19.11
2023-07-12T22:35:23.738Z,19.13
2023-07-12T22:38:15.753Z,19.02
2023-07-12T22:41:03.278Z,19.00
2023-07-12T22:43:55.763Z,18.97
2023-07-12T22:46:47.783Z,18.98
2023-07-12T22:49:32.968Z,18.93
2023-07-12T22:52:26.738Z,18.89
2023-07-12T22:55:13.251Z,18.83
2023-07-12T22:58:05.753Z,18.68
2023-07-12T23:00:51.048Z,18.72
2023-07-12T23:03:42.800Z,18.76
2023-07-12T23:06:34.942Z,18.66
2023-07-12T23:09:26.744Z,18.69
2023-07-12T23:12:14.488Z,18.60
2023-07-12T23:15:06.772Z,18.49
2023-07-12T23:17:58.777Z,18.61
2023-07-12T23:20:43.938Z,18.54
2023-07-12T23:23:35.594Z,18.56
2023-07-12T23:26:20.917Z,18.50
2023-07-12T23:29:12.593Z,18.52
2023-07-12T23:31:57.381Z,18.50
2023-07-12T23:34:49.599Z,18.38
2023-07-12T23:37:36.525Z,18.23
2023-07-12T23:40:30.622Z,18.17
2023-07-12T23:43:24.707Z,18.19
2023-07-12T23:46:10.086Z,17.99
2023-07-12T23:49:02.603Z,17.90
2023-07-12T23:51:47.570Z,17.96
2023-07-12T23:54:39.605Z,17.92
2023-07-12T23:57:25.114Z,17.89
